Terminal Aerodrome Forecast
Issued by NWS

Home | Current Version | Previous Version | Text Only | Print | Product List | Glossary On
Versions: 1 2 3 4 5 6 7 8 9 10 11 12 13 14
730
FTUS45 KTFX 252328
TAFGTF
TAF
KGTF 252328Z 2600/2624 33008KT P6SM BKN090
     FM261900 22008KT P6SM SCT100=

USA.gov is the U.S. government's official web portal to all federal, state and local government web resources and services.